Time;durP1;ratioP1;P1;durP2;ratioP2;P2;SDS_P1;SDS_P2;PMS_P1;PMS_P2;Temp;Humidity;BMP_temperature;BMP_pressure;BME280_temperature;BME280_humidity;BME280_pressure;Samples;Min_cycle;Max_cycle;Signal;HPM_P1;HPM_P2
2022/01/13 00:02:14;;;;;;;12.55;3.47;;;;;;;-14.19;63.30;99831.47;5035423;28;20049;-59
2022/01/13 00:04:41;;;;;;;5.15;2.28;;;;;;;-14.15;62.94;99820.28;5032897;28;20064;-56
2022/01/13 00:07:10;;;;;;;1.35;1.25;;;;;;;-14.16;63.39;99829.31;5035160;28;20056;-60
2022/01/13 00:09:37;;;;;;;3.58;1.77;;;;;;;-14.23;63.13;99820.31;5034489;28;20081;-59
2022/01/13 00:12:07;;;;;;;4.20;2.17;;;;;;;-14.34;63.36;99825.19;5034660;28;20127;-56
2022/01/13 00:24:45;;;;;;;3.72;2.90;;;;;;;-14.35;62.85;99819.03;5050244;28;20427;-58
2022/01/13 00:27:13;;;;;;;;;;;;;;;-14.37;62.79;99831.69;5053559;28;20059;-59
2022/01/13 00:29:44;;;;;;;9.15;2.85;;;;;;;-14.39;62.93;99814.19;5050491;28;19929;-59
2022/01/13 00:32:15;;;;;;;3.40;2.17;;;;;;;-14.44;62.65;99809.34;5052747;28;20057;-60
2022/01/13 00:34:44;;;;;;;3.00;2.15;;;;;;;-14.42;62.50;99798.50;5034718;28;20050;-60
2022/01/13 00:37:11;;;;;;;7.25;3.20;;;;;;;-14.41;62.63;99797.50;5034669;28;20417;-60
2022/01/13 00:39:38;;;;;;;4.70;1.98;;;;;;;-14.45;62.98;99783.63;5033818;28;20065;-59
2022/01/13 00:42:05;;;;;;;3.15;2.50;;;;;;;-14.43;62.43;99780.78;5034145;28;20061;-60
2022/01/13 00:44:36;;;;;;;7.63;3.30;;;;;;;-14.45;62.61;99778.28;5033733;28;20056;-59
2022/01/13 00:47:08;;;;;;;6.75;3.08;;;;;;;-14.52;62.65;99766.63;5025640;28;20185;-58
2022/01/13 00:49:36;;;;;;;6.07;2.97;;;;;;;-14.61;62.75;99759.63;5033564;28;20119;-61
2022/01/13 00:52:04;;;;;;;3.97;2.40;;;;;;;-14.62;63.38;99741.97;5034312;28;20527;-59
2022/01/13 00:54:34;;;;;;;6.65;3.08;;;;;;;-14.55;62.51;99739.44;5033478;28;20457;-60
2022/01/13 00:57:01;;;;;;;12.10;5.05;;;;;;;-14.57;62.58;99741.44;5032648;28;20045;-61
2022/01/13 00:59:29;;;;;;;4.95;2.55;;;;;;;-14.59;62.91;99722.94;5033288;28;20112;-62
2022/01/13 01:01:56;;;;;;;2.05;1.55;;;;;;;-14.60;62.48;99713.22;5033627;28;20068;-60
2022/01/13 01:04:26;;;;;;;10.98;3.25;;;;;;;-14.66;62.29;99710.44;5033515;28;20103;-58
2022/01/13 01:06:53;;;;;;;3.85;2.58;;;;;;;-14.72;62.13;99713.78;5034164;28;20092;-60
2022/01/13 01:12:18;;;;;;;12.23;3.05;;;;;;;-14.64;62.79;99717.25;5025064;28;20551;-61
2022/01/13 01:14:50;;;;;;;1.77;1.52;;;;;;;-14.62;62.48;99715.25;5033221;28;20144;-60
2022/01/13 01:17:17;;;;;;;4.65;2.47;;;;;;;-14.73;62.20;99702.25;5033996;28;20123;-61
2022/01/13 01:19:47;;;;;;;4.93;2.85;;;;;;;-14.82;62.57;99692.59;5030131;28;20053;-60
2022/01/13 01:27:27;;;;;;;8.00;3.53;;;;;;;-15.00;63.01;99683.09;5033749;28;20045;-60
2022/01/13 01:29:59;;;;;;;2.92;2.13;;;;;;;-15.04;63.51;99677.28;5031385;28;20060;-60
2022/01/13 01:32:27;;;;;;;5.10;2.67;;;;;;;-15.07;62.99;99669.63;5033375;28;20055;-61
2022/01/13 01:34:56;;;;;;;4.70;2.85;;;;;;;-15.06;63.46;99657.94;5032830;28;20049;-60
2022/01/13 01:37:26;;;;;;;2.90;1.52;;;;;;;-15.03;63.68;99662.94;5033193;28;20416;-61
2022/01/13 01:39:56;;;;;;;4.78;2.65;;;;;;;-14.99;63.03;99669.59;5031262;28;20504;-61
2022/01/13 01:42:25;;;;;;;10.90;4.15;;;;;;;-14.99;63.02;99669.59;5033629;28;20041;-61
2022/01/13 01:44:55;;;;;;;13.18;1.73;;;;;;;-14.97;63.48;99674.75;5031109;28;20071;-62
2022/01/13 01:47:29;;;;;;;5.40;3.22;;;;;;;-14.93;62.42;99676.09;5025192;28;20440;-61
2022/01/13 01:49:59;;;;;;;6.75;4.20;;;;;;;-14.94;63.22;99672.59;5032445;28;20105;-62
2022/01/13 01:52:27;;;;;;;;;;;;;;;-15.01;62.88;99666.28;5033681;28;20083;-63
2022/01/13 01:54:54;;;;;;;5.43;1.95;;;;;;;-15.09;63.21;99673.44;5032247;28;19937;-63
2022/01/13 01:57:23;;;;;;;7.60;1.42;;;;;;;-15.20;63.58;99677.25;5033289;28;20136;-63
2022/01/13 01:59:51;;;;;;;5.90;1.88;;;;;;;-15.36;63.48;99677.28;5032181;28;20073;-63
2022/01/13 02:02:18;;;;;;;1.92;1.27;;;;;;;-15.55;63.75;99666.94;5032903;28;20053;-63
2022/01/13 02:04:45;;;;;;;11.77;5.07;;;;;;;-15.57;64.37;99659.09;5030587;28;20053;-62
2022/01/13 02:07:14;;;;;;;5.55;3.03;;;;;;;-15.50;63.72;99653.94;5026285;28;20050;-63
2022/01/13 02:09:43;;;;;;;8.77;3.20;;;;;;;-15.49;63.46;99647.63;5021037;28;20045;-63
2022/01/13 02:12:19;;;;;;;7.40;3.15;;;;;;;-15.46;64.06;99652.63;5032985;28;20132;-62
2022/01/13 02:14:56;;;;;;;7.57;3.38;;;;;;;-15.37;63.96;99659.66;5032510;28;20053;-63
2022/01/13 02:17:27;;;;;;;3.65;1.92;;;;;;;-15.24;63.58;99662.59;5032820;28;20049;-63
2022/01/13 02:19:56;;;;;;;3.45;2.03;;;;;;;-15.20;63.46;99666.59;5031885;28;20484;-63
2022/01/13 02:22:24;;;;;;;2.75;1.50;;;;;;;-15.21;63.08;99675.59;5024141;28;20060;-63
2022/01/13 02:24:51;;;;;;;4.22;2.40;;;;;;;-15.23;63.41;99672.25;5031797;28;20504;-63
2022/01/13 02:27:18;;;;;;;6.28;2.55;;;;;;;-15.21;62.94;99670.28;5032266;28;20049;-59
2022/01/13 02:29:45;;;;;;;4.57;2.17;;;;;;;-15.16;62.88;99672.44;5032137;28;20049;-60
2022/01/13 02:32:13;;;;;;;20.75;5.13;;;;;;;-15.14;62.67;99665.13;5032250;28;20057;-61
2022/01/13 02:34:40;;;;;;;4.35;2.17;;;;;;;-15.14;62.83;99665.94;5032260;28;20135;-58
2022/01/13 02:37:07;;;;;;;10.10;4.03;;;;;;;-15.11;62.99;99665.59;5032546;28;20054;-61
2022/01/13 02:39:35;;;;;;;1.23;1.10;;;;;;;-15.12;62.87;99663.09;5031720;28;20053;-58
2022/01/13 02:42:04;;;;;;;1.55;1.45;;;;;;;-15.24;63.35;99665.28;5028779;28;20415;-58
2022/01/13 02:44:31;;;;;;;7.15;3.40;;;;;;;-15.28;62.92;99657.78;5031587;28;20049;-61
2022/01/13 02:49:31;;;;;;;1.30;1.20;;;;;;;-15.30;63.18;99673.94;5031871;28;20052;-58
2022/01/13 02:51:58;;;;;;;7.63;3.20;;;;;;;-15.34;63.43;99671.78;5032072;28;20045;-58
2022/01/13 02:54:25;;;;;;;5.35;2.03;;;;;;;-15.35;62.88;99667.44;5031880;28;20047;-59
2022/01/13 02:56:53;;;;;;;6.72;3.42;;;;;;;-15.37;62.84;99648.97;5031802;28;20622;-60
2022/01/13 02:59:20;;;;;;;5.15;2.28;;;;;;;-15.34;63.29;99629.13;5032100;28;20532;-58
2022/01/13 03:01:47;;;;;;;4.10;2.95;;;;;;;-15.37;62.89;99602.81;5031320;28;20061;-59
2022/01/13 03:04:14;;;;;;;3.50;1.95;;;;;;;-15.34;62.62;99597.97;5032281;28;20222;-60
2022/01/13 03:06:41;;;;;;;5.20;3.08;;;;;;;-15.34;63.10;99600.63;5031568;28;20049;-62
2022/01/13 03:09:13;;;;;;;3.10;1.58;;;;;;;-15.39;62.22;99592.31;5031876;28;20041;-59
2022/01/13 03:11:40;;;;;;;5.43;3.03;;;;;;;-15.38;62.43;99619.81;5031646;28;20551;-60
2022/01/13 03:14:11;;;;;;;9.68;3.63;;;;;;;-15.36;62.76;99618.63;5031744;28;20049;-60
2022/01/13 03:16:41;;;;;;;10.98;3.45;;;;;;;-15.33;63.02;99617.44;5031722;28;20501;-60
2022/01/13 03:19:08;;;;;;;2.92;1.98;;;;;;;-15.38;62.88;99620.63;5036023;28;20598;-61
2022/01/13 03:21:36;;;;;;;8.25;2.35;;;;;;;-15.38;62.68;99623.31;5035611;28;20516;-61
2022/01/13 03:24:08;;;;;;;15.05;4.75;;;;;;;-15.54;62.04;99620.66;5034383;28;20050;-60
2022/01/13 03:26:35;;;;;;;4.70;2.28;;;;;;;-15.63;62.26;99610.97;5035369;28;20049;-59
2022/01/13 03:31:39;;;;;;;10.07;3.22;;;;;;;-15.63;62.52;99595.00;5035567;28;20104;-61
2022/01/13 03:34:07;;;;;;;4.95;2.10;;;;;;;-15.62;62.35;99586.00;5027051;28;20108;-60
2022/01/13 03:36:34;;;;;;;2.17;1.67;;;;;;;-15.71;63.21;99563.84;5035043;28;20064;-60
2022/01/13 03:39:02;;;;;;;2.38;2.17;;;;;;;-15.74;62.14;99566.00;5035778;28;20045;-61
2022/01/13 03:41:29;;;;;;;1.73;1.52;;;;;;;-15.76;62.15;99549.34;5034842;28;20057;-58
2022/01/13 03:43:57;;;;;;;1.58;1.30;;;;;;;-15.88;62.47;99540.00;5035399;28;20057;-59
2022/01/13 03:46:25;;;;;;;4.60;2.83;;;;;;;-15.98;63.30;99542.00;5031083;28;20081;-60
2022/01/13 03:48:52;;;;;;;10.00;3.65;;;;;;;-15.98;63.14;99542.84;5035198;28;20057;-58
2022/01/13 03:51:19;;;;;;;5.45;3.67;;;;;;;-15.99;62.80;99543.03;5033729;28;20068;-59
2022/01/13 03:54:23;;;;;;;2.28;1.40;;;;;;;-15.99;62.95;99540.34;5033656;28;20107;-60
2022/01/13 03:57:14;;;;;;;0.70;0.55;;;;;;;-16.14;63.81;99531.34;5034608;28;20050;-60
2022/01/13 04:00:09;;;;;;;11.38;3.97;;;;;;;-16.28;62.59;99535.50;5034658;28;20489;-60
2022/01/13 04:02:36;;;;;;;3.50;2.65;;;;;;;-16.23;62.38;99516.38;5034464;28;20081;-58
2022/01/13 04:05:03;;;;;;;6.15;2.40;;;;;;;-16.18;62.52;99504.22;5034545;28;20049;-58
2022/01/13 04:07:30;;;;;;;3.42;2.40;;;;;;;-16.15;63.14;99513.69;5035126;28;20136;-59
2022/01/13 04:09:57;;;;;;;3.78;1.80;;;;;;;-16.21;62.68;99520.53;5034356;28;20516;-60
2022/01/13 04:12:26;;;;;;;1.08;0.95;;;;;;;-16.29;64.04;99511.69;5035089;28;20049;-57
2022/01/13 04:15:01;;;;;;;6.82;2.22;;;;;;;-16.42;64.14;99490.03;5034861;28;20103;-60
2022/01/13 04:17:29;;;;;;;;;;;;;;;-16.54;63.57;99486.91;5034147;28;20099;-59
2022/01/13 04:19:56;;;;;;;7.88;3.28;;;;;;;-16.61;64.50;99491.22;5034047;28;19925;-60
2022/01/13 04:22:24;;;;;;;2.55;2.10;;;;;;;-16.46;64.65;99478.94;5026986;28;20073;-59
2022/01/13 04:24:52;;;;;;;11.63;4.05;;;;;;;-16.35;63.48;99465.25;5034432;28;20508;-58
2022/01/13 04:27:22;;;;;;;20.30;3.38;;;;;;;-16.20;63.72;99457.47;5034742;28;20053;-60
2022/01/13 04:30:00;;;;;;;4.88;3.17;;;;;;;-16.07;62.81;99442.66;5033370;28;20045;-61
2022/01/13 04:32:27;;;;;;;0.80;0.80;;;;;;;-15.96;62.87;99454.81;5028470;28;20052;-62
2022/01/13 04:34:54;;;;;;;5.63;3.75;;;;;;;-15.93;63.30;99428.63;5028691;28;20144;-61
2022/01/13 04:37:20;;;;;;;7.13;3.38;;;;;;;-15.89;63.80;99445.13;5034598;28;20425;-59
2022/01/13 04:39:47;;;;;;;8.55;2.40;;;;;;;-15.82;63.32;99435.44;5034112;28;20420;-59
2022/01/13 04:42:15;;;;;;;6.22;3.75;;;;;;;-15.72;63.49;99425.47;5034482;28;20512;-60
2022/01/13 04:44:42;;;;;;;8.95;3.63;;;;;;;-15.64;62.81;99438.75;5033162;28;20061;-58
2022/01/13 04:47:09;;;;;;;12.98;4.35;;;;;;;-15.58;63.54;99455.91;5032441;28;20055;-61
2022/01/13 04:49:36;;;;;;;8.43;2.90;;;;;;;-15.61;63.40;99438.41;5034295;28;20057;-60
2022/01/13 04:52:03;;;;;;;7.45;2.78;;;;;;;-15.56;63.04;99441.41;5033919;28;20049;-60
2022/01/13 04:54:30;;;;;;;8.23;3.20;;;;;;;-15.67;62.98;99426.59;5034351;28;20055;-60
2022/01/13 04:57:16;;;;;;;7.38;2.70;;;;;;;-15.64;64.03;99414.75;5033850;28;20056;-59
2022/01/13 04:59:44;;;;;;;7.43;3.13;;;;;;;-15.65;63.35;99410.44;5033824;28;20085;-60
2022/01/13 05:02:14;;;;;;;8.30;1.95;;;;;;;-15.72;63.45;99417.47;5033891;28;20053;-60
2022/01/13 05:04:41;;;;;;;14.32;5.03;;;;;;;-15.72;64.03;99426.28;5032555;28;20045;-61
2022/01/13 05:07:08;;;;;;;7.13;2.90;;;;;;;-15.67;64.18;99423.94;5028970;28;20077;-61
2022/01/13 05:09:35;;;;;;;3.08;1.60;;;;;;;-15.65;64.65;99426.44;5026474;28;20060;-59
2022/01/13 05:12:02;;;;;;;2.20;1.77;;;;;;;-15.68;64.46;99403.63;5033581;28;20045;-60
2022/01/13 05:14:30;;;;;;;8.63;3.28;;;;;;;-15.75;65.02;99388.50;5033891;28;20412;-61
2022/01/13 05:17:23;;;;;;;8.43;2.13;;;;;;;-15.76;65.12;99378.81;5033338;28;20045;-60
2022/01/13 05:20:10;;;;;;;3.47;2.75;;;;;;;-15.84;65.02;99386.88;5033312;28;20053;-60
2022/01/13 05:22:37;;;;;;;13.27;4.57;;;;;;;-15.96;64.92;99401.53;5031413;28;20099;-60
2022/01/13 05:25:04;;;;;;;5.47;3.75;;;;;;;-15.98;65.50;99398.19;5032932;28;20103;-59
2022/01/13 05:27:31;;;;;;;2.33;1.55;;;;;;;-16.01;65.92;99371.91;5033586;28;20050;-56
2022/01/13 05:30:01;;;;;;;6.90;4.15;;;;;;;-16.07;64.74;99372.56;5033098;28;20056;-60
2022/01/13 05:32:28;;;;;;;5.60;3.17;;;;;;;-16.16;65.85;99349.63;5033088;28;20045;-61
2022/01/13 05:34:55;;;;;;;6.03;3.50;;;;;;;-16.15;65.48;99344.13;5032745;28;20167;-57
2022/01/13 05:37:22;;;;;;;6.85;2.72;;;;;;;-16.20;65.02;99322.50;5032626;28;20056;-60
2022/01/13 05:39:49;;;;;;;4.25;3.05;;;;;;;-16.24;65.23;99312.38;5032817;28;20119;-61
2022/01/13 05:42:16;;;;;;;3.20;2.67;;;;;;;-16.26;65.63;99333.81;5032254;28;20055;-62
2022/01/13 05:44:43;;;;;;;0.60;0.60;;;;;;;-16.23;65.25;99314.06;5033274;28;20046;-62
2022/01/13 05:47:13;;;;;;;8.35;2.45;;;;;;;-16.23;65.24;99314.06;5032322;28;20045;-61
2022/01/13 05:49:41;;;;;;;2.83;1.67;;;;;;;-16.25;65.69;99308.91;5032833;28;20057;-62
2022/01/13 05:52:12;;;;;;;10.73;3.58;;;;;;;-16.26;65.90;99309.06;5032538;28;20111;-62
2022/01/13 05:54:40;;;;;;;2.28;2.00;;;;;;;-16.27;65.55;99308.22;5028174;28;20049;-59
2022/01/13 05:57:07;;;;;;;3.92;1.90;;;;;;;-16.31;66.09;99314.06;5024914;28;20056;-61
2022/01/13 05:59:35;;;;;;;5.05;3.08;;;;;;;-16.30;65.33;99302.41;5033216;28;20064;-62
2022/01/13 06:02:03;;;;;;;1.20;1.13;;;;;;;-16.30;65.63;99286.44;5029421;28;20499;-60
2022/01/13 06:04:30;;;;;;;7.10;4.15;;;;;;;-16.32;65.68;99299.09;5033118;28;20052;-61
2022/01/13 06:06:58;;;;;;;8.50;3.70;;;;;;;-16.31;65.47;99303.41;5032317;28;20399;-58
2022/01/13 06:09:24;;;;;;;9.30;3.83;;;;;;;-16.29;64.97;99314.72;5020461;28;20136;-60
2022/01/13 06:12:01;;;;;;;4.35;2.75;;;;;;;-16.36;65.37;99313.72;5025636;28;20050;-60
2022/01/13 06:14:28;;;;;;;4.72;2.17;;;;;;;-16.36;66.36;99308.41;5027750;28;20061;-61
2022/01/13 06:16:55;;;;;;;6.35;3.53;;;;;;;-16.37;65.35;99293.44;5022589;28;20042;-58
2022/01/13 06:19:22;;;;;;;4.90;2.03;;;;;;;-16.28;65.59;99290.59;5027472;28;20076;-62
2022/01/13 06:21:49;;;;;;;11.25;5.28;;;;;;;-16.18;65.21;99282.41;5027138;28;20072;-60
2022/01/13 06:24:16;;;;;;;13.57;5.43;;;;;;;-16.17;65.67;99276.09;5024020;28;20136;-60
2022/01/13 06:26:43;;;;;;;10.63;4.45;;;;;;;-16.12;64.83;99281.72;5023588;28;20033;-61
2022/01/13 06:29:10;;;;;;;5.57;3.33;;;;;;;-16.09;65.22;99268.06;5024419;28;20516;-61
2022/01/13 06:31:37;;;;;;;4.53;3.20;;;;;;;-16.08;65.76;99243.94;5030448;28;20087;-60
2022/01/13 06:34:04;;;;;;;3.03;2.55;;;;;;;-16.09;65.06;99246.75;5019891;28;20052;-62
2022/01/13 06:36:31;;;;;;;2.47;2.28;;;;;;;-16.02;65.62;99247.75;5032335;28;20047;-60
2022/01/13 06:38:59;;;;;;;10.50;4.13;;;;;;;-16.02;65.32;99259.22;5022230;28;20049;-61
2022/01/13 06:41:26;;;;;;;6.25;3.63;;;;;;;-15.93;65.27;99249.38;5028751;28;20045;-61
2022/01/13 06:43:53;;;;;;;12.00;4.90;;;;;;;-15.84;64.88;99221.72;5031062;28;20411;-61
2022/01/13 06:46:21;;;;;;;11.63;5.28;;;;;;;-15.79;65.51;99216.66;5030759;28;20049;-59
2022/01/13 06:48:49;;;;;;;12.93;4.68;;;;;;;-15.75;64.63;99218.00;5028685;28;20058;-60
2022/01/13 06:51:16;;;;;;;4.68;2.58;;;;;;;-15.67;64.97;99201.94;5029985;28;20049;-62
2022/01/13 06:53:43;;;;;;;11.40;4.07;;;;;;;-15.71;64.77;99190.00;5025064;28;20048;-60
2022/01/13 06:56:10;;;;;;;7.53;4.93;;;;;;;-15.75;64.85;99184.19;5031984;28;20133;-61
2022/01/13 06:58:37;;;;;;;7.00;3.33;;;;;;;-15.80;64.15;99212.34;5031278;28;20053;-61
2022/01/13 07:01:04;;;;;;;2.97;2.00;;;;;;;-15.83;64.65;99218.88;5017341;28;20604;-60
2022/01/13 07:03:37;;;;;;;4.65;2.70;;;;;;;-15.77;64.33;99204.00;5018683;28;20059;-61
2022/01/13 07:06:05;;;;;;;9.63;3.22;;;;;;;-15.67;65.15;99201.94;5028827;28;20073;-60
2022/01/13 07:08:33;;;;;;;14.70;4.70;;;;;;;-15.69;64.72;99174.66;5021896;28;20073;-58
2022/01/13 07:11:03;;;;;;;11.40;3.78;;;;;;;-15.84;64.24;99176.44;5018987;28;20050;-62
2022/01/13 07:13:33;;;;;;;;;;;;;;;-15.93;64.15;99166.81;5023376;28;20568;-58
2022/01/13 07:16:01;;;;;;;5.93;3.78;;;;;;;-15.92;64.63;99155.16;5025572;28;20301;-60
2022/01/13 07:18:28;;;;;;;7.45;4.18;;;;;;;-15.79;64.73;99161.56;5021482;28;20050;-61
2022/01/13 07:20:58;;;;;;;4.70;2.88;;;;;;;-15.63;64.29;99147.31;5022330;28;20420;-61
2022/01/13 07:23:25;;;;;;;4.20;2.53;;;;;;;-15.51;64.05;99148.56;5024823;28;20520;-63
2022/01/13 07:25:52;;;;;;;5.45;2.60;;;;;;;-15.40;64.38;99132.16;5027840;28;20053;-61
2022/01/13 07:28:19;;;;;;;4.47;2.30;;;;;;;-15.29;64.02;99129.03;5030914;28;20467;-60
2022/01/13 07:30:46;;;;;;;5.30;2.00;;;;;;;-15.10;63.87;99115.19;5023029;28;20479;-62
2022/01/13 07:33:13;;;;;;;14.80;4.85;;;;;;;-14.90;63.02;99088.81;5029331;28;20060;-61
2022/01/13 07:35:40;;;;;;;8.13;4.05;;;;;;;-14.57;63.15;99095.47;5024040;28;20049;-60
2022/01/13 07:38:07;;;;;;;6.43;3.42;;;;;;;-14.27;62.03;99113.09;5028146;28;20408;-58
2022/01/13 07:40:34;;;;;;;4.35;2.95;;;;;;;-14.00;61.53;99123.06;5027692;28;20053;-60
2022/01/13 07:43:02;;;;;;;7.57;3.95;;;;;;;-13.64;61.40;99129.22;5031318;28;20068;-60
2022/01/13 07:45:29;;;;;;;9.73;4.65;;;;;;;-13.07;60.52;99113.09;5027495;28;20049;-61
2022/01/13 07:47:56;;;;;;;13.75;5.32;;;;;;;-12.78;60.11;99099.50;5031621;28;20049;-60
2022/01/13 07:50:28;;;;;;;5.68;3.03;;;;;;;-12.52;59.10;99094.31;5026649;28;20072;-59
2022/01/13 07:52:55;;;;;;;9.18;4.35;;;;;;;-12.11;58.70;99068.34;5031091;28;20393;-61
2022/01/13 07:55:22;;;;;;;7.15;4.07;;;;;;;-12.06;58.47;99065.88;5026856;28;20053;-61
2022/01/13 07:57:49;;;;;;;7.85;2.97;;;;;;;-12.16;58.34;99078.81;5023366;28;20403;-61
2022/01/13 08:00:16;;;;;;;3.28;2.38;;;;;;;-12.22;58.28;99074.25;5024279;28;20062;-61
2022/01/13 08:02:43;;;;;;;8.55;3.35;;;;;;;-12.48;59.36;99052.69;5030936;28;20064;-61
2022/01/13 08:05:10;;;;;;;6.43;3.38;;;;;;;-12.58;59.48;99060.28;5033898;28;20053;-59
2022/01/13 08:07:37;;;;;;;2.90;2.13;;;;;;;-12.61;59.99;99050.81;5028644;28;20045;-61
2022/01/13 08:10:05;;;;;;;7.53;3.10;;;;;;;-12.71;60.24;99030.75;5025645;28;20080;-61
2022/01/13 08:12:32;;;;;;;7.47;3.30;;;;;;;-12.66;59.18;99014.91;5043442;28;20095;-59
2022/01/13 08:14:59;;;;;;;5.88;3.85;;;;;;;-12.55;58.70;99003.66;5024214;28;20050;-60
2022/01/13 08:20:11;;;;;;;9.35;3.05;;;;;;;-12.13;58.08;98981.94;5029088;28;20512;-62
2022/01/13 08:22:38;;;;;;;8.23;4.55;;;;;;;-11.74;57.67;98971.28;5031348;28;20136;-62
2022/01/13 08:25:09;;;;;;;11.85;4.38;;;;;;;-11.44;57.59;98951.03;5029857;28;20107;-61
2022/01/13 08:27:37;;;;;;;4.75;2.40;;;;;;;-11.13;55.72;98942.31;5040875;28;20128;-62
2022/01/13 08:30:06;;;;;;;8.40;2.92;;;;;;;-10.82;56.45;98945.13;5020066;28;20417;-62
2022/01/13 08:32:33;;;;;;;9.80;4.05;;;;;;;-10.32;55.15;98926.31;5028115;28;20536;-61
2022/01/13 08:35:00;;;;;;;5.72;3.50;;;;;;;-9.85;54.68;98906.97;5025648;28;20053;-64
2022/01/13 08:37:27;;;;;;;8.60;4.47;;;;;;;-9.76;54.84;98902.97;5026744;28;20087;-62
2022/01/13 08:39:55;;;;;;;13.57;3.50;;;;;;;-9.88;54.29;98907.41;5041931;28;20056;-62
2022/01/13 08:42:22;;;;;;;11.07;4.65;;;;;;;-10.28;55.02;98905.19;5037387;28;20132;-60
2022/01/13 08:44:49;;;;;;;6.03;3.38;;;;;;;-10.76;55.93;98869.91;5030239;28;20111;-60
2022/01/13 08:47:16;;;;;;;3.83;2.70;;;;;;;-10.94;56.18;98861.72;5027313;28;20057;-61
2022/01/13 08:49:43;;;;;;;9.68;3.78;;;;;;;-11.00;56.71;98873.31;5029807;28;20065;-62
2022/01/13 08:52:11;;;;;;;7.32;3.45;;;;;;;-11.07;56.20;98874.38;5033620;28;20139;-59
2022/01/13 08:54:38;;;;;;;14.85;4.18;;;;;;;-11.05;56.28;98875.00;5028475;28;20049;-59
2022/01/13 08:57:06;;;;;;;9.50;3.65;;;;;;;-11.04;55.98;98860.53;5034137;28;20049;-60
2022/01/13 08:59:33;;;;;;;11.57;4.68;;;;;;;-11.02;56.80;98859.28;5050300;28;20526;-61
2022/01/13 09:02:00;;;;;;;8.52;3.75;;;;;;;-11.12;55.79;98840.13;5052419;28;20053;-61
2022/01/13 09:04:27;;;;;;;10.13;3.05;;;;;;;-11.09;56.22;98831.63;5048694;28;20411;-63
2022/01/13 09:06:55;;;;;;;11.38;3.65;;;;;;;-11.09;55.88;98826.28;5020722;28;20061;-59
2022/01/13 09:09:22;;;;;;;8.32;2.97;;;;;;;-11.22;55.37;98810.22;5024381;28;20049;-58
2022/01/13 09:11:49;;;;;;;6.70;3.15;;;;;;;-11.35;56.12;98794.16;5032964;28;20500;-59
2022/01/13 09:14:21;;;;;;;12.00;4.20;;;;;;;-11.41;56.28;98778.91;5032290;28;20528;-59
2022/01/13 09:16:49;;;;;;;5.70;3.17;;;;;;;-11.49;56.55;98768.44;5033700;28;20057;-58
2022/01/13 09:19:17;;;;;;;14.02;3.95;;;;;;;-11.46;56.24;98754.59;5026412;28;20049;-60
2022/01/13 09:21:46;;;;;;;8.48;3.20;;;;;;;-11.46;56.09;98754.59;5032065;28;20075;-61
2022/01/13 09:24:15;;;;;;;11.23;3.30;;;;;;;-11.42;56.47;98744.25;5037418;28;20084;-61
2022/01/13 09:26:43;;;;;;;4.60;2.33;;;;;;;-11.44;55.32;98751.69;5030429;28;20072;-62
2022/01/13 09:29:15;;;;;;;5.65;2.85;;;;;;;-11.55;55.27;98771.97;5022984;28;20423;-61
2022/01/13 09:31:44;;;;;;;4.68;2.60;;;;;;;-11.57;55.39;98772.13;5032555;28;20128;-60
2022/01/13 09:34:12;;;;;;;6.38;3.35;;;;;;;-11.50;56.39;98782.06;5022406;28;20111;-61
2022/01/13 09:36:40;;;;;;;2.60;1.23;;;;;;;-11.52;55.44;98777.69;5030829;28;20425;-61
2022/01/13 09:39:08;;;;;;;7.78;3.75;;;;;;;-11.48;56.30;98771.91;5029074;28;20069;-61
2022/01/13 09:41:37;;;;;;;8.15;2.80;;;;;;;-11.54;55.98;98749.44;5032301;28;20240;-60
2022/01/13 09:44:05;;;;;;;9.02;3.55;;;;;;;-11.58;55.50;98734.81;5024284;28;20052;-61
2022/01/13 09:46:33;;;;;;;8.30;2.78;;;;;;;-11.60;56.22;98726.16;5025036;28;20093;-61
2022/01/13 09:49:03;;;;;;;10.40;4.32;;;;;;;-11.67;55.90;98720.00;5020534;28;20073;-62
2022/01/13 09:51:32;;;;;;;9.18;3.78;;;;;;;-11.72;56.45;98734.06;5032825;28;20052;-60
2022/01/13 09:53:59;;;;;;;12.07;3.83;;;;;;;-11.87;55.66;98708.56;5025654;28;20521;-61
2022/01/13 09:56:26;;;;;;;11.52;3.13;;;;;;;-11.87;55.42;98703.19;5027455;28;20575;-61
2022/01/13 09:58:53;;;;;;;12.20;2.97;;;;;;;-11.86;56.42;98683.38;5040871;28;20041;-61
2022/01/13 10:01:20;;;;;;;15.55;3.50;;;;;;;-11.90;55.74;98660.72;5027473;28;20069;-61
2022/01/13 10:03:48;;;;;;;8.07;2.50;;;;;;;-11.88;56.55;98674.72;5022913;28;20046;-61
2022/01/13 10:06:20;;;;;;;7.32;2.67;;;;;;;-11.91;56.41;98667.09;5032261;28;20051;-60
2022/01/13 10:08:53;;;;;;;6.93;3.50;;;;;;;-11.91;57.16;98667.09;5032757;28;20073;-59
2022/01/13 10:11:38;;;;;;;4.72;2.85;;;;;;;-11.81;56.87;98656.75;5032639;28;20087;-60
2022/01/13 10:16:23;;;;;;;6.47;2.42;;;;;;;-11.76;56.45;98640.84;5032320;28;20084;-62
2022/01/13 10:17:02;;;;;;;6.78;3.95;;;;;;;-11.76;57.20;98622.91;5031956;28;20107;-57
2022/01/13 10:19:42;;;;;;;12.00;3.38;;;;;;;-11.73;56.55;98598.34;5031038;28;20124;-61
2022/01/13 10:22:10;;;;;;;7.53;3.85;;;;;;;-11.74;56.54;98590.50;5032435;28;20052;-59
2022/01/13 10:24:39;;;;;;;5.28;2.58;;;;;;;-11.74;56.30;98569.06;5032086;28;20049;-61
2022/01/13 10:27:10;;;;;;;7.70;2.17;;;;;;;-11.81;57.31;98547.63;5031991;28;20084;-61
2022/01/13 10:29:46;;;;;;;3.55;2.28;;;;;;;-11.81;57.34;98542.28;5032323;28;20053;-61
2022/01/13 10:32:17;;;;;;;7.70;1.63;;;;;;;-11.75;57.62;98529.88;5031376;28;20152;-61
2022/01/13 10:34:47;;;;;;;9.15;3.88;;;;;;;-11.76;56.96;98522.88;5031762;28;20072;-60
2022/01/13 10:37:20;;;;;;;9.30;4.22;;;;;;;-11.85;57.25;98502.72;5031357;28;20479;-62
2022/01/13 10:40:09;;;;;;;5.47;2.35;;;;;;;-11.82;56.65;98494.22;5032200;28;20500;-61
2022/01/13 10:45:22;;;;;;;10.82;2.08;;;;;;;-11.69;57.95;98470.03;5029486;28;20100;-60
2022/01/13 10:47:51;;;;;;;3.75;1.90;;;;;;;-11.65;57.55;98452.44;5027879;28;20075;-65
2022/01/13 10:50:19;;;;;;;8.88;3.28;;;;;;;-11.64;58.07;98440.69;5031905;28;20108;-61
2022/01/13 10:52:49;;;;;;;6.25;2.92;;;;;;;-11.54;57.21;98435.63;5031566;28;20077;-61
2022/01/13 10:55:19;;;;;;;7.23;2.70;;;;;;;-11.48;58.40;98437.44;5031883;28;20532;-61
2022/01/13 10:58:05;;;;;;;1.05;0.73;;;;;;;-11.47;58.94;98427.53;5031547;28;20417;-60
2022/01/13 11:00:34;;;;;;;2.05;1.55;;;;;;;-11.47;59.32;98412.25;5031792;28;20057;-58
2022/01/13 11:03:03;;;;;;;6.93;2.58;;;;;;;-11.45;58.97;98375.28;5031231;28;20501;-63
2022/01/13 11:05:33;;;;;;;8.40;2.70;;;;;;;-11.36;59.87;98365.91;5031748;28;20045;-59
2022/01/13 11:08:05;;;;;;;5.50;2.95;;;;;;;-11.27;59.42;98364.56;5020287;28;20543;-60
2022/01/13 11:10:33;;;;;;;9.68;2.85;;;;;;;-11.23;59.25;98338.13;5024232;28;20045;-60
2022/01/13 11:13:03;;;;;;;22.48;7.45;;;;;;;-11.21;59.69;98338.69;5031722;28;20137;-61
2022/01/13 11:15:30;;;;;;;5.00;2.38;;;;;;;-11.24;60.98;98326.56;5032126;28;20057;-61
2022/01/13 11:17:59;;;;;;;8.65;2.20;;;;;;;-11.24;60.01;98315.81;5031188;28;20048;-62
2022/01/13 11:20:28;;;;;;;4.53;2.08;;;;;;;-11.26;60.06;98301.81;5022826;28;20041;-61
2022/01/13 11:22:56;;;;;;;6.88;2.85;;;;;;;-11.33;61.67;98295.72;5028870;28;20128;-61
2022/01/13 11:25:26;;;;;;;7.10;2.80;;;;;;;-11.32;62.22;98283.91;5031628;28;20057;-61
2022/01/13 11:27:55;;;;;;;4.85;2.28;;;;;;;-11.31;62.14;98279.38;5031090;28;20061;-62
2022/01/13 11:30:26;;;;;;;8.77;2.47;;;;;;;-11.35;62.05;98265.59;5031167;28;20137;-62
2022/01/13 11:32:56;;;;;;;3.67;1.38;;;;;;;-11.48;62.98;98272.97;5031190;28;20055;-62
2022/01/13 11:35:27;;;;;;;6.53;2.33;;;;;;;-11.42;63.73;98229.16;5031288;28;20063;-60
2022/01/13 11:37:56;;;;;;;6.53;3.03;;;;;;;-11.43;65.21;98193.50;5031979;28;20099;-63
2022/01/13 11:40:25;;;;;;;5.72;3.10;;;;;;;-11.43;67.16;98193.50;5035211;28;20050;-61
2022/01/13 11:43:00;;;;;;;4.53;2.15;;;;;;;-11.44;68.71;98202.56;5033804;28;20063;-62
2022/01/13 11:45:28;;;;;;;10.23;2.65;;;;;;;-11.45;68.54;98213.50;5029573;28;20453;-60
2022/01/13 11:48:32;;;;;;;7.00;3.38;;;;;;;-11.39;69.16;98200.03;5032427;28;20140;-61
2022/01/13 11:51:20;;;;;;;6.43;2.35;;;;;;;-11.28;69.60;98180.50;5034888;28;20508;-60
2022/01/13 11:53:57;;;;;;;7.32;2.88;;;;;;;-11.26;70.52;98170.31;5033684;28;20085;-59
2022/01/13 11:56:24;;;;;;;31.15;7.82;;;;;;;-11.20;71.25;98144.47;5034928;28;20056;-54
2022/01/13 11:58:52;;;;;;;8.13;3.75;;;;;;;-11.17;70.94;98144.81;5035249;28;20042;-58
2022/01/13 12:01:28;;;;;;;9.63;3.42;;;;;;;-11.15;71.39;98142.72;5034489;28;20061;-58
2022/01/13 12:04:01;;;;;;;10.63;4.18;;;;;;;-11.08;71.00;98138.06;5035121;28;20099;-59